sensor_id;sensor_type;location;lat;lon;timestamp;P1;durP1;ratioP1;P2;durP2;ratioP2
35312;SDS011;21425;50.454;30.466;2024-02-15T00:00:47;30.90;;;11.73;;
35312;SDS011;21425;50.454;30.466;2024-02-15T00:03:13;49.78;;;16.70;;
35312;SDS011;21425;50.454;30.466;2024-02-15T00:05:39;50.85;;;14.82;;
35312;SDS011;21425;50.454;30.466;2024-02-15T00:08:05;43.20;;;14.00;;
35312;SDS011;21425;50.454;30.466;2024-02-15T00:10:31;65.47;;;14.18;;
35312;SDS011;21425;50.454;30.466;2024-02-15T00:12:58;47.55;;;13.15;;
35312;SDS011;21425;50.454;30.466;2024-02-15T00:15:24;78.13;;;17.88;;
35312;SDS011;21425;50.454;30.466;2024-02-15T00:17:50;124.97;;;20.23;;
35312;SDS011;21425;50.454;30.466;2024-02-15T00:20:16;49.67;;;13.35;;
35312;SDS011;21425;50.454;30.466;2024-02-15T00:22:43;68.38;;;16.17;;
35312;SDS011;21425;50.454;30.466;2024-02-15T00:25:09;74.63;;;15.80;;
35312;SDS011;21425;50.454;30.466;2024-02-15T00:27:36;53.55;;;14.20;;
35312;SDS011;21425;50.454;30.466;2024-02-15T00:30:02;49.85;;;13.13;;
35312;SDS011;21425;50.454;30.466;2024-02-15T00:32:32;44.85;;;14.43;;
35312;SDS011;21425;50.454;30.466;2024-02-15T00:34:58;45.35;;;12.77;;
35312;SDS011;21425;50.454;30.466;2024-02-15T00:37:24;45.38;;;11.70;;
35312;SDS011;21425;50.454;30.466;2024-02-15T00:39:50;40.63;;;11.88;;
35312;SDS011;21425;50.454;30.466;2024-02-15T00:42:16;80.88;;;13.40;;
35312;SDS011;21425;50.454;30.466;2024-02-15T00:44:41;51.25;;;13.68;;
35312;SDS011;21425;50.454;30.466;2024-02-15T00:47:09;50.78;;;12.27;;
35312;SDS011;21425;50.454;30.466;2024-02-15T00:49:36;40.65;;;13.50;;
35312;SDS011;21425;50.454;30.466;2024-02-15T00:52:02;41.65;;;12.50;;
35312;SDS011;21425;50.454;30.466;2024-02-15T00:54:28;39.67;;;13.75;;
35312;SDS011;21425;50.454;30.466;2024-02-15T00:56:54;37.97;;;11.63;;
35312;SDS011;21425;50.454;30.466;2024-02-15T00:59:19;36.85;;;10.57;;
35312;SDS011;21425;50.454;30.466;2024-02-15T01:01:45;43.63;;;13.55;;
35312;SDS011;21425;50.454;30.466;2024-02-15T01:04:13;31.85;;;10.70;;
35312;SDS011;21425;50.454;30.466;2024-02-15T01:06:39;43.42;;;11.85;;
35312;SDS011;21425;50.454;30.466;2024-02-15T01:09:05;34.60;;;10.05;;
35312;SDS011;21425;50.454;30.466;2024-02-15T01:11:33;34.42;;;11.02;;
35312;SDS011;21425;50.454;30.466;2024-02-15T01:14:00;56.38;;;14.25;;
35312;SDS011;21425;50.454;30.466;2024-02-15T01:16:26;31.75;;;10.93;;
35312;SDS011;21425;50.454;30.466;2024-02-15T01:18:52;35.88;;;11.38;;
35312;SDS011;21425;50.454;30.466;2024-02-15T01:21:18;56.70;;;11.05;;
35312;SDS011;21425;50.454;30.466;2024-02-15T01:23:44;74.63;;;18.30;;
35312;SDS011;21425;50.454;30.466;2024-02-15T01:26:11;39.72;;;11.63;;
35312;SDS011;21425;50.454;30.466;2024-02-15T01:28:39;52.28;;;13.23;;
35312;SDS011;21425;50.454;30.466;2024-02-15T01:31:08;43.53;;;11.95;;
35312;SDS011;21425;50.454;30.466;2024-02-15T01:33:35;45.85;;;13.52;;
35312;SDS011;21425;50.454;30.466;2024-02-15T01:36:02;28.05;;;9.27;;
35312;SDS011;21425;50.454;30.466;2024-02-15T01:38:28;66.90;;;13.73;;
35312;SDS011;21425;50.454;30.466;2024-02-15T01:40:54;82.10;;;16.55;;
35312;SDS011;21425;50.454;30.466;2024-02-15T01:43:20;60.47;;;14.90;;
35312;SDS011;21425;50.454;30.466;2024-02-15T01:45:46;36.03;;;10.50;;
35312;SDS011;21425;50.454;30.466;2024-02-15T01:48:14;54.78;;;11.93;;
35312;SDS011;21425;50.454;30.466;2024-02-15T01:50:40;80.18;;;14.95;;
35312;SDS011;21425;50.454;30.466;2024-02-15T01:53:07;49.75;;;13.20;;
35312;SDS011;21425;50.454;30.466;2024-02-15T01:55:33;46.92;;;14.32;;
35312;SDS011;21425;50.454;30.466;2024-02-15T01:58:00;44.03;;;12.38;;
35312;SDS011;21425;50.454;30.466;2024-02-15T02:00:26;127.20;;;24.13;;
35312;SDS011;21425;50.454;30.466;2024-02-15T02:02:53;146.35;;;18.50;;
35312;SDS011;21425;50.454;30.466;2024-02-15T02:05:24;76.88;;;16.80;;
35312;SDS011;21425;50.454;30.466;2024-02-15T02:07:51;148.27;;;19.65;;
35312;SDS011;21425;50.454;30.466;2024-02-15T02:10:17;56.50;;;12.43;;
35312;SDS011;21425;50.454;30.466;2024-02-15T02:12:43;89.60;;;15.77;;
35312;SDS011;21425;50.454;30.466;2024-02-15T02:15:09;133.35;;;20.23;;
35312;SDS011;21425;50.454;30.466;2024-02-15T02:17:36;110.05;;;20.38;;
35312;SDS011;21425;50.454;30.466;2024-02-15T02:20:02;108.40;;;20.27;;
35312;SDS011;21425;50.454;30.466;2024-02-15T02:22:33;43.72;;;14.77;;
35312;SDS011;21425;50.454;30.466;2024-02-15T02:25:04;38.75;;;14.27;;
35312;SDS011;21425;50.454;30.466;2024-02-15T02:27:34;40.33;;;12.05;;
35312;SDS011;21425;50.454;30.466;2024-02-15T02:30:04;38.38;;;13.52;;
35312;SDS011;21425;50.454;30.466;2024-02-15T02:32:32;42.53;;;13.05;;
35312;SDS011;21425;50.454;30.466;2024-02-15T02:34:59;34.17;;;12.60;;
35312;SDS011;21425;50.454;30.466;2024-02-15T02:37:26;38.17;;;13.30;;
35312;SDS011;21425;50.454;30.466;2024-02-15T02:39:52;33.65;;;14.73;;
35312;SDS011;21425;50.454;30.466;2024-02-15T02:42:18;32.03;;;13.73;;
35312;SDS011;21425;50.454;30.466;2024-02-15T02:44:44;39.05;;;14.02;;
35312;SDS011;21425;50.454;30.466;2024-02-15T02:47:10;36.70;;;12.45;;
35312;SDS011;21425;50.454;30.466;2024-02-15T02:49:36;41.40;;;14.93;;
35312;SDS011;21425;50.454;30.466;2024-02-15T02:52:02;33.78;;;14.30;;
35312;SDS011;21425;50.454;30.466;2024-02-15T02:54:28;37.17;;;13.52;;
35312;SDS011;21425;50.454;30.466;2024-02-15T02:56:55;35.50;;;12.73;;
35312;SDS011;21425;50.454;30.466;2024-02-15T02:59:21;33.60;;;13.23;;
35312;SDS011;21425;50.454;30.466;2024-02-15T03:01:47;37.90;;;15.63;;
35312;SDS011;21425;50.454;30.466;2024-02-15T03:04:15;28.17;;;11.48;;
35312;SDS011;21425;50.454;30.466;2024-02-15T03:06:43;31.20;;;13.63;;
35312;SDS011;21425;50.454;30.466;2024-02-15T03:09:10;27.38;;;10.88;;
35312;SDS011;21425;50.454;30.466;2024-02-15T03:11:38;35.03;;;13.68;;
35312;SDS011;21425;50.454;30.466;2024-02-15T03:14:04;38.88;;;14.75;;
35312;SDS011;21425;50.454;30.466;2024-02-15T03:16:33;32.38;;;11.15;;
35312;SDS011;21425;50.454;30.466;2024-02-15T03:18:59;35.00;;;12.77;;
35312;SDS011;21425;50.454;30.466;2024-02-15T03:21:27;26.20;;;11.93;;
35312;SDS011;21425;50.454;30.466;2024-02-15T03:23:53;21.42;;;8.48;;
35312;SDS011;21425;50.454;30.466;2024-02-15T03:26:28;24.25;;;10.27;;
35312;SDS011;21425;50.454;30.466;2024-02-15T03:28:56;28.60;;;10.18;;
35312;SDS011;21425;50.454;30.466;2024-02-15T03:31:22;24.10;;;10.68;;
35312;SDS011;21425;50.454;30.466;2024-02-15T03:33:48;24.70;;;11.70;;
35312;SDS011;21425;50.454;30.466;2024-02-15T03:36:15;29.58;;;12.75;;
35312;SDS011;21425;50.454;30.466;2024-02-15T03:38:43;27.85;;;12.35;;
35312;SDS011;21425;50.454;30.466;2024-02-15T03:41:09;27.90;;;12.10;;
35312;SDS011;21425;50.454;30.466;2024-02-15T03:43:35;31.75;;;12.93;;
35312;SDS011;21425;50.454;30.466;2024-02-15T03:46:01;27.23;;;11.25;;
35312;SDS011;21425;50.454;30.466;2024-02-15T03:48:27;30.65;;;11.68;;
35312;SDS011;21425;50.454;30.466;2024-02-15T03:50:54;24.30;;;12.57;;
35312;SDS011;21425;50.454;30.466;2024-02-15T03:53:19;26.20;;;11.88;;
35312;SDS011;21425;50.454;30.466;2024-02-15T03:55:45;27.67;;;10.15;;
35312;SDS011;21425;50.454;30.466;2024-02-15T03:58:11;25.15;;;10.38;;
35312;SDS011;21425;50.454;30.466;2024-02-15T04:00:39;28.25;;;11.82;;
35312;SDS011;21425;50.454;30.466;2024-02-15T04:03:05;28.55;;;10.27;;
35312;SDS011;21425;50.454;30.466;2024-02-15T04:05:32;30.95;;;12.65;;
35312;SDS011;21425;50.454;30.466;2024-02-15T04:07:57;25.42;;;10.63;;
35312;SDS011;21425;50.454;30.466;2024-02-15T04:10:27;27.90;;;10.88;;
35312;SDS011;21425;50.454;30.466;2024-02-15T04:12:53;22.63;;;10.45;;
35312;SDS011;21425;50.454;30.466;2024-02-15T04:15:19;30.15;;;11.23;;
35312;SDS011;21425;50.454;30.466;2024-02-15T04:17:45;27.27;;;10.23;;
35312;SDS011;21425;50.454;30.466;2024-02-15T04:20:11;24.40;;;10.35;;
35312;SDS011;21425;50.454;30.466;2024-02-15T04:22:39;23.30;;;11.57;;
35312;SDS011;21425;50.454;30.466;2024-02-15T04:25:07;28.45;;;10.98;;
35312;SDS011;21425;50.454;30.466;2024-02-15T04:27:42;27.58;;;13.10;;
35312;SDS011;21425;50.454;30.466;2024-02-15T04:30:10;27.58;;;11.25;;
35312;SDS011;21425;50.454;30.466;2024-02-15T04:32:36;31.13;;;10.18;;
35312;SDS011;21425;50.454;30.466;2024-02-15T04:35:02;24.88;;;10.10;;
35312;SDS011;21425;50.454;30.466;2024-02-15T04:37:30;27.67;;;11.25;;
35312;SDS011;21425;50.454;30.466;2024-02-15T04:39:57;35.17;;;12.02;;
35312;SDS011;21425;50.454;30.466;2024-02-15T04:42:24;64.78;;;13.90;;
35312;SDS011;21425;50.454;30.466;2024-02-15T04:44:51;40.03;;;11.75;;
35312;SDS011;21425;50.454;30.466;2024-02-15T04:47:19;32.40;;;10.70;;
35312;SDS011;21425;50.454;30.466;2024-02-15T04:49:45;35.47;;;9.80;;
35312;SDS011;21425;50.454;30.466;2024-02-15T04:52:13;56.03;;;12.85;;
35312;SDS011;21425;50.454;30.466;2024-02-15T04:54:39;87.10;;;15.02;;
35312;SDS011;21425;50.454;30.466;2024-02-15T04:57:05;42.65;;;12.50;;
35312;SDS011;21425;50.454;30.466;2024-02-15T04:59:33;84.30;;;19.77;;
35312;SDS011;21425;50.454;30.466;2024-02-15T05:02:00;52.95;;;14.63;;
35312;SDS011;21425;50.454;30.466;2024-02-15T05:04:26;50.83;;;13.52;;
35312;SDS011;21425;50.454;30.466;2024-02-15T05:06:52;44.95;;;12.73;;
35312;SDS011;21425;50.454;30.466;2024-02-15T05:09:18;51.22;;;13.45;;
35312;SDS011;21425;50.454;30.466;2024-02-15T05:11:44;48.50;;;13.45;;
35312;SDS011;21425;50.454;30.466;2024-02-15T05:14:13;33.58;;;12.60;;
35312;SDS011;21425;50.454;30.466;2024-02-15T05:16:44;39.75;;;13.68;;
35312;SDS011;21425;50.454;30.466;2024-02-15T05:19:12;41.95;;;16.67;;
35312;SDS011;21425;50.454;30.466;2024-02-15T05:21:38;38.08;;;14.95;;
35312;SDS011;21425;50.454;30.466;2024-02-15T05:24:05;44.20;;;15.43;;
35312;SDS011;21425;50.454;30.466;2024-02-15T05:26:31;39.00;;;16.05;;
35312;SDS011;21425;50.454;30.466;2024-02-15T05:28:57;40.00;;;13.27;;
35312;SDS011;21425;50.454;30.466;2024-02-15T05:31:23;34.85;;;14.35;;
35312;SDS011;21425;50.454;30.466;2024-02-15T05:33:53;51.80;;;15.98;;
35312;SDS011;21425;50.454;30.466;2024-02-15T05:36:19;40.58;;;12.40;;
35312;SDS011;21425;50.454;30.466;2024-02-15T05:38:52;52.80;;;13.88;;
35312;SDS011;21425;50.454;30.466;2024-02-15T05:41:18;74.43;;;16.75;;
35312;SDS011;21425;50.454;30.466;2024-02-15T05:43:45;39.90;;;13.70;;
35312;SDS011;21425;50.454;30.466;2024-02-15T05:46:13;38.70;;;15.25;;
35312;SDS011;21425;50.454;30.466;2024-02-15T05:48:39;46.05;;;13.80;;
35312;SDS011;21425;50.454;30.466;2024-02-15T05:51:06;40.22;;;14.38;;
35312;SDS011;21425;50.454;30.466;2024-02-15T05:53:33;35.30;;;14.10;;
35312;SDS011;21425;50.454;30.466;2024-02-15T05:56:00;31.38;;;13.13;;
35312;SDS011;21425;50.454;30.466;2024-02-15T05:58:26;28.65;;;13.48;;
35312;SDS011;21425;50.454;30.466;2024-02-15T06:00:52;24.02;;;12.05;;
35312;SDS011;21425;50.454;30.466;2024-02-15T06:03:19;28.63;;;14.27;;
35312;SDS011;21425;50.454;30.466;2024-02-15T06:05:51;26.50;;;11.80;;
35312;SDS011;21425;50.454;30.466;2024-02-15T06:08:22;29.33;;;13.18;;
35312;SDS011;21425;50.454;30.466;2024-02-15T06:10:52;29.40;;;13.38;;
35312;SDS011;21425;50.454;30.466;2024-02-15T06:13:18;29.38;;;11.45;;
35312;SDS011;21425;50.454;30.466;2024-02-15T06:15:45;25.20;;;11.55;;
35312;SDS011;21425;50.454;30.466;2024-02-15T06:18:14;26.70;;;13.50;;
35312;SDS011;21425;50.454;30.466;2024-02-15T06:20:41;28.83;;;11.07;;
35312;SDS011;21425;50.454;30.466;2024-02-15T06:23:08;22.60;;;11.73;;
35312;SDS011;21425;50.454;30.466;2024-02-15T06:25:37;24.33;;;10.50;;
35312;SDS011;21425;50.454;30.466;2024-02-15T06:28:03;22.40;;;10.70;;
35312;SDS011;21425;50.454;30.466;2024-02-15T06:30:38;19.75;;;10.18;;
35312;SDS011;21425;50.454;30.466;2024-02-15T06:33:23;27.52;;;11.98;;
35312;SDS011;21425;50.454;30.466;2024-02-15T06:36:08;25.25;;;11.88;;
35312;SDS011;21425;50.454;30.466;2024-02-15T06:38:52;24.00;;;10.88;;
35312;SDS011;21425;50.454;30.466;2024-02-15T06:41:37;24.42;;;11.48;;
35312;SDS011;21425;50.454;30.466;2024-02-15T06:44:03;24.10;;;11.60;;
35312;SDS011;21425;50.454;30.466;2024-02-15T06:46:29;21.52;;;10.20;;
35312;SDS011;21425;50.454;30.466;2024-02-15T06:48:55;22.73;;;9.63;;
35312;SDS011;21425;50.454;30.466;2024-02-15T06:51:23;21.63;;;10.90;;
35312;SDS011;21425;50.454;30.466;2024-02-15T06:53:49;27.60;;;11.43;;
35312;SDS011;21425;50.454;30.466;2024-02-15T06:56:16;24.23;;;9.95;;
35312;SDS011;21425;50.454;30.466;2024-02-15T06:58:45;24.88;;;12.68;;
35312;SDS011;21425;50.454;30.466;2024-02-15T07:01:13;23.90;;;10.52;;
35312;SDS011;21425;50.454;30.466;2024-02-15T07:03:41;25.75;;;11.15;;
35312;SDS011;21425;50.454;30.466;2024-02-15T07:06:09;18.85;;;9.00;;
35312;SDS011;21425;50.454;30.466;2024-02-15T07:08:35;22.25;;;12.13;;
35312;SDS011;21425;50.454;30.466;2024-02-15T07:11:01;19.08;;;10.30;;
35312;SDS011;21425;50.454;30.466;2024-02-15T07:13:28;24.15;;;11.52;;
35312;SDS011;21425;50.454;30.466;2024-02-15T07:15:54;20.50;;;11.60;;
35312;SDS011;21425;50.454;30.466;2024-02-15T07:18:20;29.60;;;13.88;;
35312;SDS011;21425;50.454;30.466;2024-02-15T07:20:47;20.30;;;11.43;;
35312;SDS011;21425;50.454;30.466;2024-02-15T07:23:13;34.35;;;14.90;;
35312;SDS011;21425;50.454;30.466;2024-02-15T07:25:39;26.45;;;11.52;;
35312;SDS011;21425;50.454;30.466;2024-02-15T07:28:05;23.95;;;13.15;;
35312;SDS011;21425;50.454;30.466;2024-02-15T07:30:34;23.10;;;12.43;;
35312;SDS011;21425;50.454;30.466;2024-02-15T07:33:01;23.70;;;11.65;;
35312;SDS011;21425;50.454;30.466;2024-02-15T07:35:27;28.05;;;13.05;;
35312;SDS011;21425;50.454;30.466;2024-02-15T07:37:54;23.42;;;10.68;;
35312;SDS011;21425;50.454;30.466;2024-02-15T07:40:23;17.30;;;9.15;;
35312;SDS011;21425;50.454;30.466;2024-02-15T07:42:54;26.27;;;13.10;;
35312;SDS011;21425;50.454;30.466;2024-02-15T07:45:21;24.45;;;12.15;;
35312;SDS011;21425;50.454;30.466;2024-02-15T07:47:48;33.15;;;16.38;;
35312;SDS011;21425;50.454;30.466;2024-02-15T07:50:17;21.17;;;11.18;;
35312;SDS011;21425;50.454;30.466;2024-02-15T07:52:48;29.45;;;15.57;;
35312;SDS011;21425;50.454;30.466;2024-02-15T07:55:14;22.60;;;11.80;;
35312;SDS011;21425;50.454;30.466;2024-02-15T07:57:40;24.33;;;10.82;;
35312;SDS011;21425;50.454;30.466;2024-02-15T08:00:07;28.50;;;15.68;;
35312;SDS011;21425;50.454;30.466;2024-02-15T08:02:39;19.90;;;9.68;;
35312;SDS011;21425;50.454;30.466;2024-02-15T08:05:09;34.00;;;14.82;;
35312;SDS011;21425;50.454;30.466;2024-02-15T08:07:40;25.85;;;13.82;;
35312;SDS011;21425;50.454;30.466;2024-02-15T08:10:07;31.13;;;13.05;;
35312;SDS011;21425;50.454;30.466;2024-02-15T08:12:38;20.35;;;9.23;;
35312;SDS011;21425;50.454;30.466;2024-02-15T08:15:08;22.30;;;11.60;;
35312;SDS011;21425;50.454;30.466;2024-02-15T08:17:40;26.63;;;11.02;;
35312;SDS011;21425;50.454;30.466;2024-02-15T08:20:09;31.23;;;12.82;;
35312;SDS011;21425;50.454;30.466;2024-02-15T08:22:36;26.27;;;11.00;;
35312;SDS011;21425;50.454;30.466;2024-02-15T08:25:09;20.42;;;10.52;;
35312;SDS011;21425;50.454;30.466;2024-02-15T08:27:40;23.42;;;11.00;;
35312;SDS011;21425;50.454;30.466;2024-02-15T08:30:09;22.75;;;10.35;;
35312;SDS011;21425;50.454;30.466;2024-02-15T08:32:35;23.67;;;11.60;;
35312;SDS011;21425;50.454;30.466;2024-02-15T08:35:03;23.88;;;10.02;;
35312;SDS011;21425;50.454;30.466;2024-02-15T08:37:30;25.05;;;11.52;;
35312;SDS011;21425;50.454;30.466;2024-02-15T08:39:59;19.17;;;10.07;;
35312;SDS011;21425;50.454;30.466;2024-02-15T08:42:25;22.73;;;9.63;;
35312;SDS011;21425;50.454;30.466;2024-02-15T08:44:51;23.55;;;11.13;;
35312;SDS011;21425;50.454;30.466;2024-02-15T08:47:18;21.90;;;10.20;;
35312;SDS011;21425;50.454;30.466;2024-02-15T08:49:43;26.20;;;11.50;;
35312;SDS011;21425;50.454;30.466;2024-02-15T08:52:09;25.13;;;11.45;;
35312;SDS011;21425;50.454;30.466;2024-02-15T08:54:35;18.98;;;9.80;;
35312;SDS011;21425;50.454;30.466;2024-02-15T08:57:03;21.20;;;10.85;;
35312;SDS011;21425;50.454;30.466;2024-02-15T08:59:30;25.65;;;12.63;;
35312;SDS011;21425;50.454;30.466;2024-02-15T09:01:56;22.33;;;10.60;;
35312;SDS011;21425;50.454;30.466;2024-02-15T09:04:23;27.63;;;12.07;;
35312;SDS011;21425;50.454;30.466;2024-02-15T09:06:49;26.23;;;14.77;;
35312;SDS011;21425;50.454;30.466;2024-02-15T09:09:16;23.73;;;11.00;;
35312;SDS011;21425;50.454;30.466;2024-02-15T09:11:42;26.77;;;9.63;;
35312;SDS011;21425;50.454;30.466;2024-02-15T09:14:08;23.13;;;12.10;;
35312;SDS011;21425;50.454;30.466;2024-02-15T09:16:37;29.38;;;11.95;;
35312;SDS011;21425;50.454;30.466;2024-02-15T09:19:04;21.77;;;9.88;;
35312;SDS011;21425;50.454;30.466;2024-02-15T09:21:31;22.88;;;10.48;;
35312;SDS011;21425;50.454;30.466;2024-02-15T09:23:58;29.20;;;11.73;;
35312;SDS011;21425;50.454;30.466;2024-02-15T09:26:24;24.48;;;10.25;;
35312;SDS011;21425;50.454;30.466;2024-02-15T09:28:50;27.55;;;12.18;;
35312;SDS011;21425;50.454;30.466;2024-02-15T09:31:16;26.27;;;10.43;;
35312;SDS011;21425;50.454;30.466;2024-02-15T09:33:42;28.42;;;11.90;;
35312;SDS011;21425;50.454;30.466;2024-02-15T09:36:08;23.05;;;10.50;;
35312;SDS011;21425;50.454;30.466;2024-02-15T09:38:34;23.50;;;12.63;;
35312;SDS011;21425;50.454;30.466;2024-02-15T09:41:00;26.98;;;11.05;;
35312;SDS011;21425;50.454;30.466;2024-02-15T09:43:27;29.70;;;13.25;;
35312;SDS011;21425;50.454;30.466;2024-02-15T09:45:54;22.42;;;11.82;;
35312;SDS011;21425;50.454;30.466;2024-02-15T09:48:23;22.40;;;10.27;;
35312;SDS011;21425;50.454;30.466;2024-02-15T09:50:51;20.75;;;12.35;;
35312;SDS011;21425;50.454;30.466;2024-02-15T09:53:21;24.45;;;12.52;;
35312;SDS011;21425;50.454;30.466;2024-02-15T09:55:50;26.67;;;12.00;;
35312;SDS011;21425;50.454;30.466;2024-02-15T09:58:19;21.08;;;10.70;;
35312;SDS011;21425;50.454;30.466;2024-02-15T10:00:45;28.30;;;11.05;;
35312;SDS011;21425;50.454;30.466;2024-02-15T10:03:11;20.98;;;9.80;;
35312;SDS011;21425;50.454;30.466;2024-02-15T10:05:43;15.88;;;7.50;;
35312;SDS011;21425;50.454;30.466;2024-02-15T10:08:09;18.67;;;8.65;;
35312;SDS011;21425;50.454;30.466;2024-02-15T10:10:37;17.08;;;9.18;;
35312;SDS011;21425;50.454;30.466;2024-02-15T10:13:03;27.20;;;8.13;;
35312;SDS011;21425;50.454;30.466;2024-02-15T10:18:05;27.00;;;13.85;;
35312;SDS011;21425;50.454;30.466;2024-02-15T10:20:33;26.98;;;12.63;;
35312;SDS011;21425;50.454;30.466;2024-02-15T10:25:26;24.38;;;10.32;;
35312;SDS011;21425;50.454;30.466;2024-02-15T10:28:02;23.65;;;11.13;;
35312;SDS011;21425;50.454;30.466;2024-02-15T10:30:31;19.02;;;9.07;;
35312;SDS011;21425;50.454;30.466;2024-02-15T10:32:58;21.17;;;9.57;;
35312;SDS011;21425;50.454;30.466;2024-02-15T10:35:24;22.45;;;10.52;;
35312;SDS011;21425;50.454;30.466;2024-02-15T10:37:50;23.20;;;11.68;;
35312;SDS011;21425;50.454;30.466;2024-02-15T10:40:20;21.60;;;9.80;;
35312;SDS011;21425;50.454;30.466;2024-02-15T10:42:50;21.92;;;10.95;;
35312;SDS011;21425;50.454;30.466;2024-02-15T10:45:17;22.35;;;11.27;;
35312;SDS011;21425;50.454;30.466;2024-02-15T10:47:44;39.30;;;12.40;;
35312;SDS011;21425;50.454;30.466;2024-02-15T10:50:12;23.13;;;9.68;;
35312;SDS011;21425;50.454;30.466;2024-02-15T10:52:41;23.15;;;10.70;;
35312;SDS011;21425;50.454;30.466;2024-02-15T10:55:11;19.88;;;10.15;;
35312;SDS011;21425;50.454;30.466;2024-02-15T10:57:39;21.13;;;11.70;;
35312;SDS011;21425;50.454;30.466;2024-02-15T11:00:11;19.65;;;10.32;;
35312;SDS011;21425;50.454;30.466;2024-02-15T11:02:50;21.67;;;10.00;;
35312;SDS011;21425;50.454;30.466;2024-02-15T11:05:27;21.30;;;11.30;;
35312;SDS011;21425;50.454;30.466;2024-02-15T11:07:56;17.20;;;10.23;;
35312;SDS011;21425;50.454;30.466;2024-02-15T11:10:23;23.48;;;10.63;;
35312;SDS011;21425;50.454;30.466;2024-02-15T11:12:50;25.90;;;11.73;;
35312;SDS011;21425;50.454;30.466;2024-02-15T11:18:02;27.17;;;12.75;;
35312;SDS011;21425;50.454;30.466;2024-02-15T11:23:00;30.30;;;11.90;;
35312;SDS011;21425;50.454;30.466;2024-02-15T11:25:36;25.52;;;12.73;;
35312;SDS011;21425;50.454;30.466;2024-02-15T11:30:50;25.00;;;11.70;;
35312;SDS011;21425;50.454;30.466;2024-02-15T11:33:29;31.55;;;12.10;;
35312;SDS011;21425;50.454;30.466;2024-02-15T11:36:06;26.63;;;11.52;;
35312;SDS011;21425;50.454;30.466;2024-02-15T11:38:36;21.40;;;10.00;;
35312;SDS011;21425;50.454;30.466;2024-02-15T11:41:07;25.98;;;10.02;;
35312;SDS011;21425;50.454;30.466;2024-02-15T11:43:51;26.33;;;11.73;;
35312;SDS011;21425;50.454;30.466;2024-02-15T11:46:21;25.17;;;12.55;;
35312;SDS011;21425;50.454;30.466;2024-02-15T11:48:55;30.77;;;13.38;;
35312;SDS011;21425;50.454;30.466;2024-02-15T11:56:31;21.67;;;11.40;;
35312;SDS011;21425;50.454;30.466;2024-02-15T11:59:02;27.13;;;11.98;;
35312;SDS011;21425;50.454;30.466;2024-02-15T12:01:32;25.75;;;11.55;;
35312;SDS011;21425;50.454;30.466;2024-02-15T12:04:17;24.10;;;11.02;;
35312;SDS011;21425;50.454;30.466;2024-02-15T12:07:02;23.08;;;10.27;;
35312;SDS011;21425;50.454;30.466;2024-02-15T12:09:46;23.50;;;11.85;;
35312;SDS011;21425;50.454;30.466;2024-02-15T12:12:31;24.30;;;9.98;;
35312;SDS011;21425;50.454;30.466;2024-02-15T12:15:16;25.67;;;12.07;;
35312;SDS011;21425;50.454;30.466;2024-02-15T12:18:18;20.45;;;11.07;;
35312;SDS011;21425;50.454;30.466;2024-02-15T12:21:02;25.02;;;11.68;;
35312;SDS011;21425;50.454;30.466;2024-02-15T12:23:29;26.45;;;11.55;;
35312;SDS011;21425;50.454;30.466;2024-02-15T12:25:59;26.27;;;11.63;;
35312;SDS011;21425;50.454;30.466;2024-02-15T12:28:25;32.92;;;14.60;;
35312;SDS011;21425;50.454;30.466;2024-02-15T12:30:54;29.42;;;14.00;;
35312;SDS011;21425;50.454;30.466;2024-02-15T12:33:23;28.10;;;12.65;;
35312;SDS011;21425;50.454;30.466;2024-02-15T12:35:49;26.85;;;11.05;;
35312;SDS011;21425;50.454;30.466;2024-02-15T12:38:16;26.75;;;11.27;;
35312;SDS011;21425;50.454;30.466;2024-02-15T12:40:42;32.35;;;11.80;;
35312;SDS011;21425;50.454;30.466;2024-02-15T12:43:11;29.35;;;15.45;;
35312;SDS011;21425;50.454;30.466;2024-02-15T12:45:40;24.70;;;12.50;;
35312;SDS011;21425;50.454;30.466;2024-02-15T12:48:08;24.55;;;10.93;;
35312;SDS011;21425;50.454;30.466;2024-02-15T12:50:34;25.60;;;11.15;;
35312;SDS011;21425;50.454;30.466;2024-02-15T12:53:00;25.08;;;11.93;;
35312;SDS011;21425;50.454;30.466;2024-02-15T12:57:59;31.90;;;13.48;;
35312;SDS011;21425;50.454;30.466;2024-02-15T13:00:28;32.80;;;14.25;;
35312;SDS011;21425;50.454;30.466;2024-02-15T13:02:57;33.95;;;14.38;;
35312;SDS011;21425;50.454;30.466;2024-02-15T13:05:24;24.08;;;11.45;;
35312;SDS011;21425;50.454;30.466;2024-02-15T13:07:51;24.58;;;13.40;;
35312;SDS011;21425;50.454;30.466;2024-02-15T13:10:17;29.55;;;12.65;;
35312;SDS011;21425;50.454;30.466;2024-02-15T13:12:44;30.73;;;15.38;;
35312;SDS011;21425;50.454;30.466;2024-02-15T13:15:12;31.48;;;12.27;;
35312;SDS011;21425;50.454;30.466;2024-02-15T13:17:39;25.52;;;11.20;;
35312;SDS011;21425;50.454;30.466;2024-02-15T13:20:06;25.58;;;12.27;;
35312;SDS011;21425;50.454;30.466;2024-02-15T13:22:36;27.73;;;12.23;;
35312;SDS011;21425;50.454;30.466;2024-02-15T13:25:04;24.42;;;12.48;;
35312;SDS011;21425;50.454;30.466;2024-02-15T13:27:32;23.05;;;12.48;;
35312;SDS011;21425;50.454;30.466;2024-02-15T13:29:58;24.23;;;12.90;;
35312;SDS011;21425;50.454;30.466;2024-02-15T13:32:24;31.13;;;14.30;;
35312;SDS011;21425;50.454;30.466;2024-02-15T13:34:50;29.85;;;14.98;;
35312;SDS011;21425;50.454;30.466;2024-02-15T13:37:20;26.17;;;12.73;;
35312;SDS011;21425;50.454;30.466;2024-02-15T13:39:49;32.72;;;15.73;;
35312;SDS011;21425;50.454;30.466;2024-02-15T13:42:16;39.95;;;17.25;;
35312;SDS011;21425;50.454;30.466;2024-02-15T13:44:42;37.58;;;14.38;;
35312;SDS011;21425;50.454;30.466;2024-02-15T13:47:13;33.25;;;15.82;;
35312;SDS011;21425;50.454;30.466;2024-02-15T13:49:41;27.55;;;12.48;;
35312;SDS011;21425;50.454;30.466;2024-02-15T13:52:07;31.60;;;14.07;;
35312;SDS011;21425;50.454;30.466;2024-02-15T13:54:36;32.85;;;15.30;;
35312;SDS011;21425;50.454;30.466;2024-02-15T13:57:01;33.20;;;14.20;;
35312;SDS011;21425;50.454;30.466;2024-02-15T13:59:28;43.35;;;16.67;;
35312;SDS011;21425;50.454;30.466;2024-02-15T14:01:57;44.13;;;17.85;;
35312;SDS011;21425;50.454;30.466;2024-02-15T14:04:23;37.67;;;16.58;;
35312;SDS011;21425;50.454;30.466;2024-02-15T14:06:49;37.63;;;15.88;;
35312;SDS011;21425;50.454;30.466;2024-02-15T14:09:15;28.30;;;13.10;;
35312;SDS011;21425;50.454;30.466;2024-02-15T14:11:42;40.83;;;18.75;;
35312;SDS011;21425;50.454;30.466;2024-02-15T14:14:08;32.50;;;12.65;;
35312;SDS011;21425;50.454;30.466;2024-02-15T14:16:34;35.58;;;12.98;;
35312;SDS011;21425;50.454;30.466;2024-02-15T14:19:00;32.58;;;13.52;;
35312;SDS011;21425;50.454;30.466;2024-02-15T14:21:28;38.20;;;14.60;;
35312;SDS011;21425;50.454;30.466;2024-02-15T14:23:57;52.35;;;17.92;;
35312;SDS011;21425;50.454;30.466;2024-02-15T14:26:23;44.90;;;19.23;;
35312;SDS011;21425;50.454;30.466;2024-02-15T14:28:52;44.20;;;18.85;;
35312;SDS011;21425;50.454;30.466;2024-02-15T14:31:18;55.53;;;17.27;;
35312;SDS011;21425;50.454;30.466;2024-02-15T14:34:02;47.08;;;17.02;;